sensor_id;sensor_type;location;lat;lon;timestamp;P1;durP1;ratioP1;P2;durP2;ratioP2
54197;SDS011;40105;52.366;17.000;2023-08-24T00:00:07;4.70;;;1.95;;
54197;SDS011;40105;52.366;17.000;2023-08-24T00:03:32;2.67;;;1.98;;
54197;SDS011;40105;52.366;17.000;2023-08-24T00:06:55;3.97;;;1.95;;
54197;SDS011;40105;52.366;17.000;2023-08-24T00:10:19;2.28;;;1.73;;
54197;SDS011;40105;52.366;17.000;2023-08-24T00:13:43;5.60;;;2.15;;
54197;SDS011;40105;52.366;17.000;2023-08-24T00:17:07;5.75;;;1.92;;
54197;SDS011;40105;52.366;17.000;2023-08-24T00:20:32;2.55;;;1.40;;
54197;SDS011;40105;52.366;17.000;2023-08-24T00:23:56;5.75;;;2.63;;
54197;SDS011;40105;52.366;17.000;2023-08-24T00:27:19;4.82;;;2.30;;
54197;SDS011;40105;52.366;17.000;2023-08-24T00:30:43;3.28;;;1.40;;
54197;SDS011;40105;52.366;17.000;2023-08-24T00:34:07;4.93;;;1.90;;
54197;SDS011;40105;52.366;17.000;2023-08-24T00:37:31;2.60;;;1.98;;
54197;SDS011;40105;52.366;17.000;2023-08-24T00:40:56;2.70;;;1.70;;
54197;SDS011;40105;52.366;17.000;2023-08-24T00:44:20;2.50;;;1.83;;
54197;SDS011;40105;52.366;17.000;2023-08-24T00:47:45;2.30;;;1.42;;
54197;SDS011;40105;52.366;17.000;2023-08-24T00:51:09;2.83;;;1.52;;
54197;SDS011;40105;52.366;17.000;2023-08-24T00:54:33;2.65;;;1.63;;
54197;SDS011;40105;52.366;17.000;2023-08-24T00:57:58;2.10;;;1.40;;
54197;SDS011;40105;52.366;17.000;2023-08-24T01:01:22;3.45;;;2.00;;
54197;SDS011;40105;52.366;17.000;2023-08-24T01:04:46;3.75;;;2.17;;
54197;SDS011;40105;52.366;17.000;2023-08-24T01:08:10;5.07;;;1.02;;
54197;SDS011;40105;52.366;17.000;2023-08-24T01:11:43;2.25;;;1.25;;
54197;SDS011;40105;52.366;17.000;2023-08-24T01:15:37;2.60;;;1.27;;
54197;SDS011;40105;52.366;17.000;2023-08-24T01:19:05;4.38;;;2.42;;
54197;SDS011;40105;52.366;17.000;2023-08-24T01:22:41;2.58;;;1.45;;
54197;SDS011;40105;52.366;17.000;2023-08-24T01:26:17;1.60;;;1.27;;
54197;SDS011;40105;52.366;17.000;2023-08-24T01:29:41;2.22;;;1.23;;
54197;SDS011;40105;52.366;17.000;2023-08-24T01:33:05;2.60;;;1.67;;
54197;SDS011;40105;52.366;17.000;2023-08-24T01:36:29;3.67;;;1.88;;
54197;SDS011;40105;52.366;17.000;2023-08-24T01:43:20;3.90;;;1.92;;
54197;SDS011;40105;52.366;17.000;2023-08-24T01:46:45;3.60;;;1.75;;
54197;SDS011;40105;52.366;17.000;2023-08-24T01:50:10;2.30;;;1.30;;
54197;SDS011;40105;52.366;17.000;2023-08-24T01:53:35;2.67;;;1.88;;
54197;SDS011;40105;52.366;17.000;2023-08-24T01:56:59;3.70;;;1.52;;
54197;SDS011;40105;52.366;17.000;2023-08-24T02:00:23;3.65;;;1.83;;
54197;SDS011;40105;52.366;17.000;2023-08-24T02:03:47;3.97;;;1.60;;
54197;SDS011;40105;52.366;17.000;2023-08-24T02:07:11;2.67;;;1.70;;
54197;SDS011;40105;52.366;17.000;2023-08-24T02:10:35;1.83;;;1.48;;
54197;SDS011;40105;52.366;17.000;2023-08-24T02:13:58;3.30;;;1.58;;
54197;SDS011;40105;52.366;17.000;2023-08-24T02:17:22;2.50;;;1.52;;
54197;SDS011;40105;52.366;17.000;2023-08-24T02:20:46;3.25;;;1.85;;
54197;SDS011;40105;52.366;17.000;2023-08-24T02:24:10;3.47;;;2.15;;
54197;SDS011;40105;52.366;17.000;2023-08-24T02:27:34;2.72;;;1.73;;
54197;SDS011;40105;52.366;17.000;2023-08-24T02:31:02;2.83;;;1.95;;
54197;SDS011;40105;52.366;17.000;2023-08-24T02:34:26;9.88;;;2.85;;
54197;SDS011;40105;52.366;17.000;2023-08-24T02:37:49;3.92;;;2.05;;
54197;SDS011;40105;52.366;17.000;2023-08-24T02:41:13;6.88;;;2.60;;
54197;SDS011;40105;52.366;17.000;2023-08-24T02:44:37;2.58;;;1.60;;
54197;SDS011;40105;52.366;17.000;2023-08-24T02:48:01;4.10;;;1.90;;
54197;SDS011;40105;52.366;17.000;2023-08-24T02:51:25;2.80;;;1.80;;
54197;SDS011;40105;52.366;17.000;2023-08-24T02:54:49;3.58;;;1.75;;
54197;SDS011;40105;52.366;17.000;2023-08-24T02:58:12;3.50;;;2.10;;
54197;SDS011;40105;52.366;17.000;2023-08-24T03:01:36;2.65;;;1.50;;
54197;SDS011;40105;52.366;17.000;2023-08-24T03:05:01;4.32;;;1.85;;
54197;SDS011;40105;52.366;17.000;2023-08-24T03:08:26;2.15;;;1.45;;
54197;SDS011;40105;52.366;17.000;2023-08-24T03:11:50;4.70;;;2.50;;
54197;SDS011;40105;52.366;17.000;2023-08-24T03:15:13;8.02;;;2.33;;
54197;SDS011;40105;52.366;17.000;2023-08-24T03:18:37;3.00;;;1.90;;
54197;SDS011;40105;52.366;17.000;2023-08-24T03:22:01;3.42;;;1.70;;
54197;SDS011;40105;52.366;17.000;2023-08-24T03:25:25;5.63;;;1.95;;
54197;SDS011;40105;52.366;17.000;2023-08-24T03:28:49;3.83;;;1.70;;
54197;SDS011;40105;52.366;17.000;2023-08-24T03:32:13;4.75;;;1.77;;
54197;SDS011;40105;52.366;17.000;2023-08-24T03:35:37;3.05;;;1.58;;
54197;SDS011;40105;52.366;17.000;2023-08-24T03:39:00;3.88;;;2.10;;
54197;SDS011;40105;52.366;17.000;2023-08-24T03:42:24;3.38;;;2.25;;
54197;SDS011;40105;52.366;17.000;2023-08-24T03:45:48;2.70;;;1.67;;
54197;SDS011;40105;52.366;17.000;2023-08-24T03:49:12;3.58;;;2.13;;
54197;SDS011;40105;52.366;17.000;2023-08-24T03:52:36;2.75;;;1.80;;
54197;SDS011;40105;52.366;17.000;2023-08-24T03:55:59;19.80;;;2.40;;
54197;SDS011;40105;52.366;17.000;2023-08-24T03:59:23;3.45;;;1.95;;
54197;SDS011;40105;52.366;17.000;2023-08-24T04:02:47;4.15;;;1.75;;
54197;SDS011;40105;52.366;17.000;2023-08-24T04:06:11;5.88;;;2.83;;
54197;SDS011;40105;52.366;17.000;2023-08-24T04:09:35;12.30;;;3.00;;
54197;SDS011;40105;52.366;17.000;2023-08-24T04:12:59;16.52;;;4.40;;
54197;SDS011;40105;52.366;17.000;2023-08-24T04:16:22;4.75;;;2.35;;
54197;SDS011;40105;52.366;17.000;2023-08-24T04:19:46;4.72;;;2.33;;
54197;SDS011;40105;52.366;17.000;2023-08-24T04:23:12;5.05;;;2.65;;
54197;SDS011;40105;52.366;17.000;2023-08-24T04:26:36;4.63;;;2.47;;
54197;SDS011;40105;52.366;17.000;2023-08-24T04:30:00;3.05;;;1.85;;
54197;SDS011;40105;52.366;17.000;2023-08-24T04:33:24;3.35;;;2.03;;
54197;SDS011;40105;52.366;17.000;2023-08-24T04:36:47;4.68;;;2.30;;
54197;SDS011;40105;52.366;17.000;2023-08-24T04:40:11;3.72;;;2.45;;
54197;SDS011;40105;52.366;17.000;2023-08-24T04:43:37;3.00;;;1.95;;
54197;SDS011;40105;52.366;17.000;2023-08-24T04:47:01;5.30;;;2.90;;
54197;SDS011;40105;52.366;17.000;2023-08-24T04:50:26;3.08;;;2.10;;
54197;SDS011;40105;52.366;17.000;2023-08-24T04:53:52;3.65;;;2.05;;
54197;SDS011;40105;52.366;17.000;2023-08-24T04:57:16;5.75;;;2.35;;
54197;SDS011;40105;52.366;17.000;2023-08-24T05:00:40;4.97;;;2.83;;
54197;SDS011;40105;52.366;17.000;2023-08-24T05:04:04;6.63;;;3.35;;
54197;SDS011;40105;52.366;17.000;2023-08-24T05:07:28;12.70;;;3.10;;
54197;SDS011;40105;52.366;17.000;2023-08-24T05:10:51;4.57;;;2.42;;
54197;SDS011;40105;52.366;17.000;2023-08-24T05:14:15;5.50;;;2.25;;
54197;SDS011;40105;52.366;17.000;2023-08-24T05:17:39;4.70;;;2.67;;
54197;SDS011;40105;52.366;17.000;2023-08-24T05:21:04;5.40;;;2.72;;
54197;SDS011;40105;52.366;17.000;2023-08-24T05:24:28;6.18;;;1.98;;
54197;SDS011;40105;52.366;17.000;2023-08-24T05:27:51;4.20;;;2.50;;
54197;SDS011;40105;52.366;17.000;2023-08-24T05:31:17;7.85;;;3.03;;
54197;SDS011;40105;52.366;17.000;2023-08-24T05:34:41;7.80;;;3.20;;
54197;SDS011;40105;52.366;17.000;2023-08-24T05:38:05;5.25;;;2.60;;
54197;SDS011;40105;52.366;17.000;2023-08-24T05:41:29;8.85;;;2.85;;
54197;SDS011;40105;52.366;17.000;2023-08-24T05:44:53;6.07;;;2.90;;
54197;SDS011;40105;52.366;17.000;2023-08-24T05:48:17;5.03;;;2.70;;
54197;SDS011;40105;52.366;17.000;2023-08-24T05:51:41;5.07;;;2.42;;
54197;SDS011;40105;52.366;17.000;2023-08-24T05:55:05;5.00;;;2.85;;
54197;SDS011;40105;52.366;17.000;2023-08-24T05:58:28;7.25;;;3.45;;
54197;SDS011;40105;52.366;17.000;2023-08-24T06:01:52;7.65;;;3.75;;
54197;SDS011;40105;52.366;17.000;2023-08-24T06:05:16;6.78;;;3.92;;
54197;SDS011;40105;52.366;17.000;2023-08-24T06:08:40;7.32;;;3.28;;
54197;SDS011;40105;52.366;17.000;2023-08-24T06:12:04;5.90;;;3.67;;
54197;SDS011;40105;52.366;17.000;2023-08-24T06:15:28;15.95;;;2.75;;
54197;SDS011;40105;52.366;17.000;2023-08-24T06:18:52;7.93;;;3.70;;
54197;SDS011;40105;52.366;17.000;2023-08-24T06:22:16;7.20;;;3.40;;
54197;SDS011;40105;52.366;17.000;2023-08-24T06:25:43;4.78;;;2.78;;
54197;SDS011;40105;52.366;17.000;2023-08-24T06:29:07;6.07;;;3.20;;
54197;SDS011;40105;52.366;17.000;2023-08-24T06:32:32;17.98;;;4.13;;
54197;SDS011;40105;52.366;17.000;2023-08-24T06:35:58;5.00;;;2.40;;
54197;SDS011;40105;52.366;17.000;2023-08-24T06:39:23;3.47;;;2.13;;
54197;SDS011;40105;52.366;17.000;2023-08-24T06:42:47;6.82;;;2.47;;
54197;SDS011;40105;52.366;17.000;2023-08-24T06:46:10;8.23;;;2.33;;
54197;SDS011;40105;52.366;17.000;2023-08-24T06:49:34;7.47;;;3.20;;
54197;SDS011;40105;52.366;17.000;2023-08-24T06:52:58;2.67;;;1.60;;
54197;SDS011;40105;52.366;17.000;2023-08-24T06:56:22;7.05;;;2.08;;
54197;SDS011;40105;52.366;17.000;2023-08-24T06:59:46;7.75;;;2.13;;
54197;SDS011;40105;52.366;17.000;2023-08-24T07:03:10;5.60;;;2.15;;
54197;SDS011;40105;52.366;17.000;2023-08-24T07:06:34;8.52;;;1.70;;
54197;SDS011;40105;52.366;17.000;2023-08-24T07:09:58;7.03;;;1.88;;
54197;SDS011;40105;52.366;17.000;2023-08-24T07:13:21;9.07;;;1.63;;
54197;SDS011;40105;52.366;17.000;2023-08-24T07:16:45;2.55;;;1.40;;
54197;SDS011;40105;52.366;17.000;2023-08-24T07:20:09;6.00;;;1.27;;
54197;SDS011;40105;52.366;17.000;2023-08-24T07:23:33;2.17;;;1.02;;
54197;SDS011;40105;52.366;17.000;2023-08-24T07:26:58;1.08;;;0.80;;
54197;SDS011;40105;52.366;17.000;2023-08-24T07:30:26;2.45;;;1.40;;
54197;SDS011;40105;52.366;17.000;2023-08-24T07:33:50;1.27;;;0.85;;
54197;SDS011;40105;52.366;17.000;2023-08-24T07:37:14;2.97;;;1.13;;
54197;SDS011;40105;52.366;17.000;2023-08-24T07:40:38;1.73;;;1.10;;
54197;SDS011;40105;52.366;17.000;2023-08-24T07:44:02;2.42;;;1.35;;
54197;SDS011;40105;52.366;17.000;2023-08-24T07:47:25;1.05;;;0.88;;
54197;SDS011;40105;52.366;17.000;2023-08-24T07:50:49;10.40;;;0.98;;
54197;SDS011;40105;52.366;17.000;2023-08-24T07:54:13;2.90;;;1.00;;
54197;SDS011;40105;52.366;17.000;2023-08-24T07:57:37;0.57;;;0.57;;
54197;SDS011;40105;52.366;17.000;2023-08-24T08:01:01;1.15;;;0.57;;
54197;SDS011;40105;52.366;17.000;2023-08-24T08:04:25;3.50;;;0.98;;
54197;SDS011;40105;52.366;17.000;2023-08-24T08:07:48;0.63;;;0.50;;
54197;SDS011;40105;52.366;17.000;2023-08-24T08:11:15;2.15;;;0.88;;
54197;SDS011;40105;52.366;17.000;2023-08-24T08:14:39;2.65;;;0.93;;
54197;SDS011;40105;52.366;17.000;2023-08-24T08:18:06;0.95;;;0.50;;
54197;SDS011;40105;52.366;17.000;2023-08-24T08:21:31;3.13;;;1.05;;
54197;SDS011;40105;52.366;17.000;2023-08-24T08:25:00;4.72;;;1.00;;
54197;SDS011;40105;52.366;17.000;2023-08-24T08:28:24;0.98;;;0.80;;
54197;SDS011;40105;52.366;17.000;2023-08-24T08:31:48;2.15;;;0.70;;
54197;SDS011;40105;52.366;17.000;2023-08-24T08:35:12;4.57;;;1.05;;
54197;SDS011;40105;52.366;17.000;2023-08-24T08:38:35;1.00;;;0.70;;
54197;SDS011;40105;52.366;17.000;2023-08-24T08:41:59;2.15;;;0.85;;
54197;SDS011;40105;52.366;17.000;2023-08-24T08:45:26;1.38;;;0.70;;
54197;SDS011;40105;52.366;17.000;2023-08-24T08:48:51;0.73;;;0.50;;
54197;SDS011;40105;52.366;17.000;2023-08-24T08:52:16;0.73;;;0.55;;
54197;SDS011;40105;52.366;17.000;2023-08-24T08:55:40;3.75;;;1.25;;
54197;SDS011;40105;52.366;17.000;2023-08-24T08:59:05;1.00;;;0.70;;
54197;SDS011;40105;52.366;17.000;2023-08-24T09:02:31;2.13;;;1.00;;
54197;SDS011;40105;52.366;17.000;2023-08-24T09:05:56;0.80;;;0.60;;
54197;SDS011;40105;52.366;17.000;2023-08-24T09:09:21;1.95;;;0.95;;
54197;SDS011;40105;52.366;17.000;2023-08-24T09:12:45;3.83;;;0.65;;
54197;SDS011;40105;52.366;17.000;2023-08-24T09:16:09;3.53;;;1.10;;
54197;SDS011;40105;52.366;17.000;2023-08-24T09:19:34;1.50;;;0.70;;
54197;SDS011;40105;52.366;17.000;2023-08-24T09:22:58;4.10;;;1.20;;
54197;SDS011;40105;52.366;17.000;2023-08-24T09:26:32;2.97;;;1.58;;
54197;SDS011;40105;52.366;17.000;2023-08-24T09:29:56;2.97;;;0.65;;
54197;SDS011;40105;52.366;17.000;2023-08-24T09:33:20;5.43;;;1.17;;
54197;SDS011;40105;52.366;17.000;2023-08-24T09:36:45;0.98;;;0.70;;
54197;SDS011;40105;52.366;17.000;2023-08-24T09:40:11;1.02;;;0.70;;
54197;SDS011;40105;52.366;17.000;2023-08-24T09:43:34;3.17;;;0.77;;
54197;SDS011;40105;52.366;17.000;2023-08-24T09:46:58;1.17;;;0.75;;
54197;SDS011;40105;52.366;17.000;2023-08-24T09:50:22;4.03;;;0.80;;
54197;SDS011;40105;52.366;17.000;2023-08-24T09:53:46;1.73;;;0.60;;
54197;SDS011;40105;52.366;17.000;2023-08-24T09:57:10;9.00;;;1.40;;
54197;SDS011;40105;52.366;17.000;2023-08-24T10:00:34;1.13;;;0.73;;
54197;SDS011;40105;52.366;17.000;2023-08-24T10:03:59;1.75;;;0.75;;
54197;SDS011;40105;52.366;17.000;2023-08-24T10:07:24;1.15;;;0.80;;
54197;SDS011;40105;52.366;17.000;2023-08-24T10:10:53;4.38;;;1.70;;
54197;SDS011;40105;52.366;17.000;2023-08-24T10:14:26;1.83;;;1.13;;
54197;SDS011;40105;52.366;17.000;2023-08-24T10:17:52;3.15;;;1.42;;
54197;SDS011;40105;52.366;17.000;2023-08-24T10:21:17;4.60;;;0.77;;
54197;SDS011;40105;52.366;17.000;2023-08-24T10:24:42;3.03;;;1.13;;
54197;SDS011;40105;52.366;17.000;2023-08-24T10:28:07;0.85;;;0.65;;
54197;SDS011;40105;52.366;17.000;2023-08-24T10:31:31;2.45;;;0.77;;
54197;SDS011;40105;52.366;17.000;2023-08-24T10:34:55;1.00;;;0.82;;
54197;SDS011;40105;52.366;17.000;2023-08-24T10:38:23;4.60;;;1.00;;
54197;SDS011;40105;52.366;17.000;2023-08-24T10:41:53;6.45;;;1.02;;
54197;SDS011;40105;52.366;17.000;2023-08-24T10:45:17;2.20;;;0.80;;
54197;SDS011;40105;52.366;17.000;2023-08-24T10:56:13;2.53;;;1.00;;
54197;SDS011;40105;52.366;17.000;2023-08-24T11:00:03;3.67;;;1.92;;
54197;SDS011;40105;52.366;17.000;2023-08-24T11:03:34;2.35;;;1.13;;
54197;SDS011;40105;52.366;17.000;2023-08-24T11:06:58;4.13;;;0.95;;
54197;SDS011;40105;52.366;17.000;2023-08-24T11:10:34;2.13;;;0.90;;
54197;SDS011;40105;52.366;17.000;2023-08-24T11:14:16;3.78;;;1.17;;
54197;SDS011;40105;52.366;17.000;2023-08-24T11:18:00;1.30;;;1.02;;
54197;SDS011;40105;52.366;17.000;2023-08-24T11:21:33;2.38;;;1.05;;
54197;SDS011;40105;52.366;17.000;2023-08-24T11:24:57;3.90;;;1.15;;
54197;SDS011;40105;52.366;17.000;2023-08-24T11:28:26;2.55;;;0.80;;
54197;SDS011;40105;52.366;17.000;2023-08-24T11:31:50;1.52;;;1.00;;
54197;SDS011;40105;52.366;17.000;2023-08-24T11:35:18;2.58;;;0.93;;
54197;SDS011;40105;52.366;17.000;2023-08-24T11:38:43;2.30;;;1.10;;
54197;SDS011;40105;52.366;17.000;2023-08-24T11:42:10;3.22;;;1.13;;
54197;SDS011;40105;52.366;17.000;2023-08-24T11:45:34;3.85;;;1.05;;
54197;SDS011;40105;52.366;17.000;2023-08-24T11:48:59;2.05;;;0.82;;
54197;SDS011;40105;52.366;17.000;2023-08-24T11:52:23;2.88;;;1.08;;
54197;SDS011;40105;52.366;17.000;2023-08-24T11:55:47;2.05;;;0.90;;
54197;SDS011;40105;52.366;17.000;2023-08-24T11:59:15;1.80;;;0.70;;
54197;SDS011;40105;52.366;17.000;2023-08-24T12:02:42;1.33;;;0.90;;
54197;SDS011;40105;52.366;17.000;2023-08-24T12:06:12;1.40;;;1.00;;
54197;SDS011;40105;52.366;17.000;2023-08-24T12:09:38;1.10;;;0.80;;
54197;SDS011;40105;52.366;17.000;2023-08-24T12:13:06;3.60;;;1.00;;
54197;SDS011;40105;52.366;17.000;2023-08-24T12:16:32;1.27;;;0.77;;
54197;SDS011;40105;52.366;17.000;2023-08-24T12:19:59;1.15;;;0.80;;
54197;SDS011;40105;52.366;17.000;2023-08-24T12:23:26;6.53;;;1.02;;
54197;SDS011;40105;52.366;17.000;2023-08-24T12:26:57;2.17;;;1.38;;
54197;SDS011;40105;52.366;17.000;2023-08-24T12:30:44;2.30;;;1.23;;
54197;SDS011;40105;52.366;17.000;2023-08-24T12:34:09;2.92;;;0.73;;
54197;SDS011;40105;52.366;17.000;2023-08-24T12:37:34;2.90;;;1.08;;
54197;SDS011;40105;52.366;17.000;2023-08-24T12:41:00;10.77;;;1.02;;
54197;SDS011;40105;52.366;17.000;2023-08-24T12:44:25;3.45;;;1.00;;
54197;SDS011;40105;52.366;17.000;2023-08-24T12:47:49;2.80;;;1.00;;
54197;SDS011;40105;52.366;17.000;2023-08-24T12:51:13;2.42;;;0.88;;
54197;SDS011;40105;52.366;17.000;2023-08-24T12:54:37;2.22;;;1.27;;
54197;SDS011;40105;52.366;17.000;2023-08-24T12:58:01;1.95;;;0.90;;
54197;SDS011;40105;52.366;17.000;2023-08-24T13:01:25;7.35;;;1.40;;
54197;SDS011;40105;52.366;17.000;2023-08-24T13:04:48;2.15;;;1.27;;
54197;SDS011;40105;52.366;17.000;2023-08-24T13:08:13;1.98;;;1.10;;
54197;SDS011;40105;52.366;17.000;2023-08-24T13:11:37;1.52;;;0.95;;
54197;SDS011;40105;52.366;17.000;2023-08-24T13:15:01;1.42;;;1.00;;
54197;SDS011;40105;52.366;17.000;2023-08-24T13:18:25;1.42;;;0.90;;
54197;SDS011;40105;52.366;17.000;2023-08-24T13:21:49;2.10;;;1.25;;
54197;SDS011;40105;52.366;17.000;2023-08-24T13:25:12;3.75;;;1.00;;
54197;SDS011;40105;52.366;17.000;2023-08-24T13:28:46;2.63;;;1.02;;
54197;SDS011;40105;52.366;17.000;2023-08-24T13:32:10;2.28;;;1.20;;
54197;SDS011;40105;52.366;17.000;2023-08-24T13:35:34;2.38;;;1.10;;
54197;SDS011;40105;52.366;17.000;2023-08-24T13:38:58;1.58;;;1.10;;
54197;SDS011;40105;52.366;17.000;2023-08-24T13:42:25;3.55;;;0.90;;
54197;SDS011;40105;52.366;17.000;2023-08-24T13:45:49;2.25;;;1.45;;
54197;SDS011;40105;52.366;17.000;2023-08-24T13:49:13;2.15;;;1.08;;
54197;SDS011;40105;52.366;17.000;2023-08-24T13:52:36;1.58;;;0.90;;
54197;SDS011;40105;52.366;17.000;2023-08-24T13:56:00;2.60;;;1.20;;
54197;SDS011;40105;52.366;17.000;2023-08-24T13:59:25;1.73;;;1.17;;
54197;SDS011;40105;52.366;17.000;2023-08-24T14:02:50;1.88;;;1.05;;
54197;SDS011;40105;52.366;17.000;2023-08-24T14:06:14;8.85;;;1.33;;
54197;SDS011;40105;52.366;17.000;2023-08-24T14:09:38;2.40;;;1.13;;
54197;SDS011;40105;52.366;17.000;2023-08-24T14:13:02;6.28;;;1.88;;
54197;SDS011;40105;52.366;17.000;2023-08-24T14:16:26;2.58;;;1.30;;
54197;SDS011;40105;52.366;17.000;2023-08-24T14:19:50;1.83;;;0.98;;
54197;SDS011;40105;52.366;17.000;2023-08-24T14:23:14;2.38;;;1.20;;
54197;SDS011;40105;52.366;17.000;2023-08-24T14:26:37;4.30;;;0.88;;
54197;SDS011;40105;52.366;17.000;2023-08-24T14:30:02;3.08;;;1.10;;
54197;SDS011;40105;52.366;17.000;2023-08-24T14:33:25;1.65;;;1.10;;
54197;SDS011;40105;52.366;17.000;2023-08-24T14:36:49;2.92;;;1.00;;
54197;SDS011;40105;52.366;17.000;2023-08-24T14:40:13;4.30;;;1.20;;
54197;SDS011;40105;52.366;17.000;2023-08-24T14:43:41;4.40;;;1.75;;
54197;SDS011;40105;52.366;17.000;2023-08-24T14:47:05;2.53;;;1.20;;
54197;SDS011;40105;52.366;17.000;2023-08-24T14:50:30;2.08;;;0.93;;
54197;SDS011;40105;52.366;17.000;2023-08-24T14:53:53;1.70;;;1.00;;
54197;SDS011;40105;52.366;17.000;2023-08-24T14:57:17;1.88;;;0.95;;
54197;SDS011;40105;52.366;17.000;2023-08-24T15:00:42;2.28;;;1.00;;
54197;SDS011;40105;52.366;17.000;2023-08-24T15:04:06;1.70;;;1.20;;
54197;SDS011;40105;52.366;17.000;2023-08-24T15:07:30;2.40;;;1.17;;
54197;SDS011;40105;52.366;17.000;2023-08-24T15:10:54;2.58;;;1.30;;
54197;SDS011;40105;52.366;17.000;2023-08-24T15:14:18;2.90;;;1.23;;
54197;SDS011;40105;52.366;17.000;2023-08-24T15:17:43;2.78;;;1.20;;
54197;SDS011;40105;52.366;17.000;2023-08-24T15:21:07;3.58;;;1.20;;
54197;SDS011;40105;52.366;17.000;2023-08-24T15:24:31;1.65;;;0.85;;
54197;SDS011;40105;52.366;17.000;2023-08-24T15:27:54;2.88;;;1.45;;
54197;SDS011;40105;52.366;17.000;2023-08-24T15:31:39;2.28;;;1.30;;
54197;SDS011;40105;52.366;17.000;2023-08-24T15:35:03;1.73;;;1.20;;
54197;SDS011;40105;52.366;17.000;2023-08-24T15:38:27;4.05;;;1.15;;
54197;SDS011;40105;52.366;17.000;2023-08-24T15:41:51;1.80;;;1.02;;
54197;SDS011;40105;52.366;17.000;2023-08-24T15:45:15;5.15;;;1.25;;
54197;SDS011;40105;52.366;17.000;2023-08-24T15:48:39;6.68;;;1.25;;
54197;SDS011;40105;52.366;17.000;2023-08-24T15:52:03;2.40;;;1.25;;
54197;SDS011;40105;52.366;17.000;2023-08-24T15:55:28;2.83;;;1.30;;
54197;SDS011;40105;52.366;17.000;2023-08-24T15:58:53;1.33;;;0.90;;
54197;SDS011;40105;52.366;17.000;2023-08-24T16:02:17;1.33;;;0.95;;
54197;SDS011;40105;52.366;17.000;2023-08-24T16:05:41;2.97;;;1.25;;
54197;SDS011;40105;52.366;17.000;2023-08-24T16:09:05;1.88;;;1.23;;
54197;SDS011;40105;52.366;17.000;2023-08-24T16:12:30;6.85;;;1.50;;
54197;SDS011;40105;52.366;17.000;2023-08-24T16:15:54;4.60;;;1.63;;
54197;SDS011;40105;52.366;17.000;2023-08-24T16:19:19;3.65;;;1.60;;
54197;SDS011;40105;52.366;17.000;2023-08-24T16:22:43;3.53;;;1.52;;
54197;SDS011;40105;52.366;17.000;2023-08-24T16:26:07;3.55;;;1.55;;
54197;SDS011;40105;52.366;17.000;2023-08-24T16:29:31;2.33;;;1.38;;
54197;SDS011;40105;52.366;17.000;2023-08-24T16:32:55;4.75;;;1.27;;
54197;SDS011;40105;52.366;17.000;2023-08-24T16:36:19;1.63;;;0.90;;
54197;SDS011;40105;52.366;17.000;2023-08-24T16:39:43;3.72;;;1.50;;
54197;SDS011;40105;52.366;17.000;2023-08-24T16:43:06;3.97;;;1.67;;
54197;SDS011;40105;52.366;17.000;2023-08-24T16:46:30;5.03;;;1.42;;
54197;SDS011;40105;52.366;17.000;2023-08-24T16:49:54;1.88;;;1.10;;
54197;SDS011;40105;52.366;17.000;2023-08-24T16:53:18;2.67;;;1.23;;
54197;SDS011;40105;52.366;17.000;2023-08-24T16:56:42;5.65;;;1.67;;
54197;SDS011;40105;52.366;17.000;2023-08-24T17:00:06;3.50;;;1.17;;
54197;SDS011;40105;52.366;17.000;2023-08-24T17:03:34;5.50;;;1.55;;
54197;SDS011;40105;52.366;17.000;2023-08-24T17:06:57;2.47;;;1.23;;
54197;SDS011;40105;52.366;17.000;2023-08-24T17:10:26;1.65;;;1.10;;
54197;SDS011;40105;52.366;17.000;2023-08-24T17:13:50;2.40;;;1.20;;
54197;SDS011;40105;52.366;17.000;2023-08-24T17:17:14;2.28;;;1.10;;
54197;SDS011;40105;52.366;17.000;2023-08-24T17:20:38;2.20;;;1.15;;
54197;SDS011;40105;52.366;17.000;2023-08-24T17:24:01;2.00;;;1.00;;
54197;SDS011;40105;52.366;17.000;2023-08-24T17:27:25;1.92;;;1.20;;
54197;SDS011;40105;52.366;17.000;2023-08-24T17:30:50;1.88;;;1.13;;
54197;SDS011;40105;52.366;17.000;2023-08-24T17:34:14;2.13;;;1.20;;
54197;SDS011;40105;52.366;17.000;2023-08-24T17:37:38;1.67;;;1.10;;
54197;SDS011;40105;52.366;17.000;2023-08-24T17:41:02;2.58;;;1.50;;
54197;SDS011;40105;52.366;17.000;2023-08-24T17:44:26;5.22;;;1.30;;
54197;SDS011;40105;52.366;17.000;2023-08-24T17:47:50;4.65;;;1.27;;
54197;SDS011;40105;52.366;17.000;2023-08-24T17:51:14;5.97;;;1.50;;
54197;SDS011;40105;52.366;17.000;2023-08-24T17:54:38;4.45;;;1.30;;
54197;SDS011;40105;52.366;17.000;2023-08-24T17:58:02;3.17;;;1.75;;
54197;SDS011;40105;52.366;17.000;2023-08-24T18:01:26;1.92;;;1.45;;
54197;SDS011;40105;52.366;17.000;2023-08-24T18:04:50;3.00;;;1.65;;
54197;SDS011;40105;52.366;17.000;2023-08-24T18:08:17;7.70;;;1.85;;
54197;SDS011;40105;52.366;17.000;2023-08-24T18:11:41;4.68;;;1.77;;
54197;SDS011;40105;52.366;17.000;2023-08-24T18:15:05;15.93;;;1.58;;
54197;SDS011;40105;52.366;17.000;2023-08-24T18:18:29;3.85;;;1.38;;
54197;SDS011;40105;52.366;17.000;2023-08-24T18:21:53;8.07;;;2.25;;
54197;SDS011;40105;52.366;17.000;2023-08-24T18:25:16;6.65;;;2.28;;
54197;SDS011;40105;52.366;17.000;2023-08-24T18:28:41;5.78;;;2.13;;
54197;SDS011;40105;52.366;17.000;2023-08-24T18:32:05;11.20;;;2.45;;
54197;SDS011;40105;52.366;17.000;2023-08-24T18:35:29;5.95;;;1.92;;
54197;SDS011;40105;52.366;17.000;2023-08-24T18:38:53;6.60;;;2.25;;
54197;SDS011;40105;52.366;17.000;2023-08-24T18:42:16;4.13;;;2.35;;
54197;SDS011;40105;52.366;17.000;2023-08-24T18:45:40;3.90;;;2.30;;
54197;SDS011;40105;52.366;17.000;2023-08-24T18:49:04;3.45;;;1.85;;
54197;SDS011;40105;52.366;17.000;2023-08-24T18:52:28;6.18;;;1.92;;
54197;SDS011;40105;52.366;17.000;2023-08-24T18:55:53;4.38;;;1.83;;
54197;SDS011;40105;52.366;17.000;2023-08-24T18:59:17;5.35;;;2.17;;
54197;SDS011;40105;52.366;17.000;2023-08-24T19:02:41;4.57;;;1.83;;
54197;SDS011;40105;52.366;17.000;2023-08-24T19:06:05;3.78;;;1.90;;
54197;SDS011;40105;52.366;17.000;2023-08-24T19:09:29;5.20;;;1.60;;
54197;SDS011;40105;52.366;17.000;2023-08-24T19:12:53;2.40;;;1.75;;
54197;SDS011;40105;52.366;17.000;2023-08-24T19:16:17;8.38;;;2.83;;
54197;SDS011;40105;52.366;17.000;2023-08-24T19:19:41;4.35;;;2.47;;
54197;SDS011;40105;52.366;17.000;2023-08-24T19:23:06;4.75;;;2.55;;
54197;SDS011;40105;52.366;17.000;2023-08-24T19:26:30;25.63;;;2.85;;
54197;SDS011;40105;52.366;17.000;2023-08-24T19:29:53;12.02;;;2.80;;
54197;SDS011;40105;52.366;17.000;2023-08-24T19:33:19;4.38;;;2.65;;
54197;SDS011;40105;52.366;17.000;2023-08-24T19:36:43;12.30;;;2.58;;
54197;SDS011;40105;52.366;17.000;2023-08-24T19:40:07;13.82;;;2.63;;
54197;SDS011;40105;52.366;17.000;2023-08-24T19:43:31;8.60;;;2.60;;
54197;SDS011;40105;52.366;17.000;2023-08-24T19:46:55;7.95;;;2.40;;
54197;SDS011;40105;52.366;17.000;2023-08-24T19:50:19;8.40;;;2.05;;
54197;SDS011;40105;52.366;17.000;2023-08-24T19:53:42;4.38;;;2.05;;
54197;SDS011;40105;52.366;17.000;2023-08-24T19:57:07;6.80;;;2.65;;
54197;SDS011;40105;52.366;17.000;2023-08-24T20:00:31;6.70;;;2.33;;
54197;SDS011;40105;52.366;17.000;2023-08-24T20:03:55;7.90;;;2.55;;
54197;SDS011;40105;52.366;17.000;2023-08-24T20:07:19;4.53;;;2.20;;
54197;SDS011;40105;52.366;17.000;2023-08-24T20:10:44;5.18;;;1.55;;
54197;SDS011;40105;52.366;17.000;2023-08-24T20:14:08;5.30;;;2.03;;
54197;SDS011;40105;52.366;17.000;2023-08-24T20:17:39;5.00;;;1.33;;
54197;SDS011;40105;52.366;17.000;2023-08-24T20:21:04;8.63;;;3.08;;
54197;SDS011;40105;52.366;17.000;2023-08-24T20:24:28;5.35;;;2.35;;